createdAt,value
2019-05-10T00:00:05.170Z,43.58
2019-05-10T00:05:27.594Z,48.28
2019-05-10T00:10:30.565Z,46.80
2019-05-10T00:15:35.690Z,45.10
2019-05-10T00:20:39.185Z,48.60
2019-05-10T00:25:42.510Z,45.28
2019-05-10T00:30:46.660Z,47.98
2019-05-10T00:35:50.270Z,47.67
2019-05-10T00:40:53.989Z,46.70
2019-05-10T00:45:58.208Z,45.98
2019-05-10T00:51:01.603Z,48.00
2019-05-10T00:56:04.929Z,48.28
2019-05-10T01:01:08.465Z,48.68
2019-05-10T01:06:12.098Z,48.08
2019-05-10T01:11:16.436Z,47.00
2019-05-10T01:16:20.371Z,47.35
2019-05-10T01:21:23.705Z,46.75
2019-05-10T01:26:27.493Z,47.38
2019-05-10T01:31:30.835Z,46.05
2019-05-10T01:36:34.210Z,47.53
2019-05-10T01:41:37.886Z,47.27
2019-05-10T01:46:41.331Z,47.15
2019-05-10T01:51:44.964Z,45.23
2019-05-10T01:56:49.383Z,45.52
2019-05-10T02:01:53.712Z,45.20
2019-05-10T02:06:57.285Z,46.80
2019-05-10T02:12:00.646Z,45.23
2019-05-10T02:17:04.159Z,45.20
2019-05-10T02:22:07.876Z,48.85
2019-05-10T02:27:11.588Z,47.40
2019-05-10T02:32:15.269Z,42.88
2019-05-10T02:37:18.731Z,45.25
2019-05-10T02:42:22.215Z,44.98
2019-05-10T02:47:26.018Z,43.58
2019-05-10T02:52:30.358Z,41.08
2019-05-10T02:57:35.709Z,41.50
2019-05-10T03:02:39.979Z,40.85
2019-05-10T03:07:46.797Z,43.23
2019-05-10T03:12:53.481Z,42.70
2019-05-10T03:18:02.842Z,38.83
2019-05-10T03:23:09.635Z,40.38
2019-05-10T03:28:12.959Z,39.13
2019-05-10T03:33:16.589Z,39.78
2019-05-10T03:38:20.522Z,37.60
2019-05-10T03:43:24.154Z,36.58
2019-05-10T03:48:27.881Z,37.67
2019-05-10T03:53:31.387Z,37.13
2019-05-10T03:58:34.888Z,36.93
2019-05-10T04:03:38.257Z,38.05
2019-05-10T04:08:43.935Z,38.73
2019-05-10T04:13:47.517Z,34.78
2019-05-10T04:18:51.298Z,36.20
2019-05-10T04:23:55.274Z,34.95
2019-05-10T04:29:00.700Z,34.25
2019-05-10T04:34:04.457Z,34.55
2019-05-10T04:39:07.771Z,35.33
2019-05-10T04:44:11.613Z,34.33
2019-05-10T04:49:14.859Z,32.00
2019-05-10T04:54:18.596Z,32.30
2019-05-10T04:59:22.332Z,31.95
2019-05-10T05:04:25.659Z,33.85
2019-05-10T05:09:29.323Z,32.50
2019-05-10T05:14:33.135Z,30.97
2019-05-10T05:19:36.520Z,31.00
2019-05-10T05:24:39.911Z,33.65
2019-05-10T05:29:45.318Z,31.05
2019-05-10T05:34:48.676Z,30.05
2019-05-10T05:39:52.100Z,27.82
2019-05-10T05:44:55.884Z,28.60
2019-05-10T05:49:59.337Z,29.85
2019-05-10T05:55:03.884Z,29.63
2019-05-10T06:00:07.590Z,30.70
2019-05-10T06:05:11.343Z,29.77
2019-05-10T06:10:19.839Z,30.52
2019-05-10T06:15:23.192Z,29.63
2019-05-10T06:20:26.264Z,31.23
2019-05-10T06:25:39.706Z,30.70
2019-05-10T06:30:35.449Z,31.77
2019-05-10T06:35:38.854Z,31.35
2019-05-10T06:40:47.326Z,31.80
2019-05-10T06:45:52.319Z,33.00
2019-05-10T06:50:54.588Z,32.50
2019-05-10T06:56:17.437Z,34.25
2019-05-10T07:01:20.908Z,32.70
2019-05-10T07:06:24.363Z,31.02
2019-05-10T07:11:27.918Z,30.97
2019-05-10T07:16:31.259Z,29.70
2019-05-10T07:21:38.959Z,29.98
2019-05-10T07:26:40.298Z,28.47
2019-05-10T07:31:43.758Z,27.00
2019-05-10T07:36:47.419Z,27.37
2019-05-10T07:41:51.252Z,26.25
2019-05-10T07:46:58.336Z,26.82
2019-05-10T07:52:02.217Z,22.27
2019-05-10T07:57:05.770Z,19.87
2019-05-10T08:02:14.747Z,23.32
2019-05-10T08:07:18.642Z,23.32
2019-05-10T08:12:22.904Z,22.32
2019-05-10T08:17:28.704Z,18.05
2019-05-10T08:22:40.499Z,19.20
2019-05-10T08:27:44.054Z,21.77
2019-05-10T08:32:43.054Z,19.50
2019-05-10T08:37:46.890Z,16.93
2019-05-10T08:43:03.113Z,17.00
2019-05-10T08:48:00.862Z,20.57
2019-05-10T08:53:10.570Z,18.65
2019-05-10T08:58:07.613Z,17.40
2019-05-10T09:03:18.284Z,16.07
2019-05-10T09:08:20.011Z,17.27
2019-05-10T09:13:28.856Z,16.97
2019-05-10T09:18:29.185Z,14.60
2019-05-10T09:23:32.754Z,15.60
2019-05-10T09:28:37.148Z,12.98
2019-05-10T09:33:49.188Z,13.00
2019-05-10T09:38:46.971Z,10.88
2019-05-10T09:43:53.614Z,11.38
2019-05-10T09:49:06.033Z,12.03
2019-05-10T09:54:01.949Z,11.12
2019-05-10T09:59:05.256Z,10.23
2019-05-10T10:04:09.378Z,9.68
2019-05-10T10:09:13.829Z,8.68
2019-05-10T10:14:18.075Z,10.82
2019-05-10T10:19:24.359Z,10.98
2019-05-10T10:24:28.486Z,8.30
2019-05-10T10:29:34.096Z,6.53
2019-05-10T10:34:42.865Z,6.12
2019-05-10T10:39:43.346Z,6.80
2019-05-10T10:44:48.468Z,4.65
2019-05-10T10:49:52.174Z,6.53
2019-05-10T10:54:57.681Z,6.30
2019-05-10T11:00:01.248Z,3.58
2019-05-10T11:05:05.222Z,3.72
2019-05-10T11:10:16.093Z,4.33
2019-05-10T11:15:16.481Z,3.25
2019-05-10T11:20:21.692Z,3.37
2019-05-10T11:25:26.341Z,3.37
2019-05-10T11:30:32.467Z,3.70
2019-05-10T11:35:35.673Z,3.43
2019-05-10T11:40:41.889Z,4.10
2019-05-10T11:45:46.714Z,2.90
2019-05-10T11:50:51.347Z,3.40
2019-05-10T11:55:55.501Z,3.40
2019-05-10T12:01:02.383Z,3.70
2019-05-10T12:16:16.841Z,3.40
2019-05-10T12:21:21.847Z,2.93
2019-05-10T12:26:27.550Z,2.85
2019-05-10T12:31:31.268Z,2.50
2019-05-10T12:36:34.685Z,2.67
2019-05-10T12:41:39.671Z,2.80
2019-05-10T12:46:43.589Z,3.70
2019-05-10T12:51:48.577Z,3.50
2019-05-10T12:56:53.132Z,3.42
2019-05-10T13:01:58.305Z,3.25
2019-05-10T13:07:01.842Z,2.62
2019-05-10T13:12:06.302Z,2.40
2019-05-10T13:17:12.363Z,2.87
2019-05-10T13:22:16.042Z,2.80
2019-05-10T13:27:19.627Z,2.52
2019-05-10T13:32:22.963Z,2.30
2019-05-10T13:37:29.491Z,1.70
2019-05-10T13:42:36.483Z,1.42
2019-05-10T13:47:38.296Z,2.40
2019-05-10T13:52:42.022Z,2.10
2019-05-10T13:57:45.349Z,2.05
2019-05-10T14:02:49.011Z,2.12
2019-05-10T14:07:53.337Z,1.87
2019-05-10T14:13:02.323Z,2.00
2019-05-10T14:23:06.519Z,2.25
2019-05-10T14:28:15.449Z,1.82
2019-05-10T14:33:17.286Z,1.55
2019-05-10T14:38:22.968Z,1.72
2019-05-10T14:43:26.313Z,2.25
2019-05-10T14:48:35.120Z,1.77
2019-05-10T14:53:35.013Z,1.50
2019-05-10T14:58:38.435Z,1.77
2019-05-10T15:03:45.742Z,1.87
2019-05-10T15:08:50.734Z,1.40
2019-05-10T15:13:54.213Z,2.02
2019-05-10T15:18:58.646Z,1.85
2019-05-10T15:24:03.099Z,1.65
2019-05-10T15:29:06.634Z,1.87
2019-05-10T15:34:10.617Z,1.87
2019-05-10T15:39:14.370Z,1.92
2019-05-10T15:44:19.163Z,2.25
2019-05-10T15:49:24.436Z,2.37
2019-05-10T15:54:28.701Z,1.80
2019-05-10T15:59:32.849Z,2.30
2019-05-10T16:04:37.147Z,2.05
2019-05-10T16:09:40.402Z,2.52
2019-05-10T16:14:45.766Z,3.45
2019-05-10T16:19:50.937Z,3.08
2019-05-10T16:25:00.902Z,3.72
2019-05-10T16:30:01.026Z,4.90
2019-05-10T16:35:12.389Z,5.03
2019-05-10T16:40:14.110Z,6.53
2019-05-10T16:45:18.309Z,6.60
2019-05-10T16:50:25.898Z,6.05
2019-05-10T16:55:27.305Z,6.62
2019-05-10T17:00:31.071Z,8.55
2019-05-10T17:05:34.580Z,8.75
2019-05-10T17:10:39.753Z,7.85
2019-05-10T17:15:44.110Z,7.97
2019-05-10T17:20:51.003Z,8.38
2019-05-10T17:25:53.705Z,8.65
2019-05-10T17:30:59.969Z,9.18
2019-05-10T17:36:08.485Z,10.13
2019-05-10T17:41:11.991Z,9.78
2019-05-10T17:46:18.747Z,7.50
2019-05-10T17:51:21.206Z,8.30
2019-05-10T17:56:24.949Z,7.25
2019-05-10T18:01:28.711Z,6.30
2019-05-10T18:06:32.047Z,7.00
2019-05-10T18:11:36.879Z,8.58
2019-05-10T18:16:48.258Z,8.60
2019-05-10T18:21:48.801Z,9.53
2019-05-10T18:26:52.311Z,8.68
2019-05-10T18:31:58.368Z,9.15
2019-05-10T18:37:01.435Z,11.10
2019-05-10T18:42:05.171Z,11.85
2019-05-10T18:47:08.690Z,12.53
2019-05-10T18:52:12.115Z,12.58
2019-05-10T18:57:19.741Z,13.32
2019-05-10T19:07:29.141Z,14.45
2019-05-10T19:12:33.167Z,14.80
2019-05-10T19:17:40.407Z,20.15
2019-05-10T19:22:43.103Z,18.35
2019-05-10T19:27:50.796Z,16.73
2019-05-10T19:32:56.295Z,13.13
2019-05-10T19:37:59.183Z,17.30
2019-05-10T19:43:04.661Z,18.15
2019-05-10T19:48:08.197Z,18.48
2019-05-10T19:53:11.900Z,19.55
2019-05-10T19:58:15.316Z,21.20
2019-05-10T20:03:19.176Z,23.00
2019-05-10T20:08:22.629Z,22.70
2019-05-10T20:13:26.496Z,23.75
2019-05-10T20:18:32.797Z,22.82
2019-05-10T20:23:36.194Z,23.20
2019-05-10T20:28:39.679Z,22.15
2019-05-10T20:33:43.175Z,20.23
2019-05-10T20:38:47.056Z,19.12
2019-05-10T20:43:51.419Z,16.40
2019-05-10T20:48:55.129Z,16.25
2019-05-10T20:53:58.465Z,16.55
2019-05-10T20:59:02.838Z,16.50
2019-05-10T21:04:06.319Z,16.80
2019-05-10T21:09:09.696Z,16.67
2019-05-10T21:14:13.176Z,18.62
2019-05-10T21:19:20.089Z,19.67
2019-05-10T21:24:23.714Z,18.48
2019-05-10T21:29:27.085Z,18.32
2019-05-10T21:34:31.444Z,19.67
2019-05-10T21:39:34.734Z,17.95
2019-05-10T21:44:38.373Z,19.52
2019-05-10T21:49:41.668Z,17.80
2019-05-10T21:54:45.555Z,19.17
2019-05-10T21:59:49.469Z,19.12
2019-05-10T22:04:54.063Z,18.98
2019-05-10T22:09:57.942Z,19.62
2019-05-10T22:15:01.256Z,19.95
2019-05-10T22:20:05.565Z,20.45
2019-05-10T22:25:09.128Z,21.65
2019-05-10T22:30:12.844Z,21.97
2019-05-10T22:35:16.350Z,21.95
2019-05-10T22:40:19.670Z,21.45
2019-05-10T22:45:23.101Z,21.68
2019-05-10T22:50:26.439Z,22.85
2019-05-10T22:55:29.871Z,22.70
2019-05-10T23:00:33.154Z,22.05
2019-05-10T23:05:36.721Z,21.52
2019-05-10T23:10:40.550Z,22.00
2019-05-10T23:15:43.916Z,21.73
2019-05-10T23:20:47.473Z,19.85
2019-05-10T23:25:51.678Z,20.90
2019-05-10T23:30:56.885Z,20.48
2019-05-10T23:36:00.198Z,22.42
2019-05-10T23:41:03.503Z,23.02
2019-05-10T23:46:07.228Z,22.27
2019-05-10T23:51:11.031Z,21.68
2019-05-10T23:56:14.465Z,21.90
